3WI3 weather

Plover River Airfield
Bevent, Wisconsin, United States

Public forecast

Using degrees Fahrenheit for public forecast. Weather courtesy of forecast.io.

Closest aviation weather report (METAR) to Plover River Airfield

Closest report is Central Wisconsin Airport, 11.1 nm (20.5 km) W. Retrieved 2020/02/18 06:35 UTC (0 seconds ago):

KCWA 180635Z AUTO 33006KT 2 1/2SM UP SCT005 OVC014 M02/M02 A2979 RMK AO2

Closest aviation forecast (TAF) to Plover River Airfield

Closest forecast is Central Wisconsin Airport, 11.1 nm (20.5 km) W. Retrieved 2020/02/18 06:22 UTC (0 seconds ago):

TAF KCWA 180520Z 1806/1906 09004KT 2SM -SN OVC012 TEMPO 1806/1807 1SM -SN BR OVC006 FM180700 33009G16KT 3SM -SHSN BKN006 FM180900 31011G19KT P6SM BKN035 AMD LTD TO CLD VIS AND WIND TIL 181200